昆明 の空港の天気 - METARとTAF

昆明巫家餽国際空港 ( ZPPP / KMG ) - 中国 雲南省昆明市
飛行場実況気象(Metar)
観測時間02/17 22:00 CST (02/17 14:00 UTC)
風向・風速西南西 8m/s
視程10km以上
天気現象
なし
気温10℃
湿度58%
気圧1014hPa
METARZPPP 171400Z 24008MPS CAVOK 10/02 Q1014 NOSIG
過去の天気等 Google飛行場航空写真 Wunderground天気予報

過去48時間のMETAR

飛行場予報(TAF)
発表時間: 2/17 15:09 CST (2/17 07:09 UTC)
予報対象時間: 17日20時 CST ~ 18日20時 CST
風向・風速南西 7m/s
視程10km以上
全天の8割程度の雲 雲底高度 790m
18日11時 CST ~ 18日12時 CST に徐々に
風向・風速南西 12m/s 瞬間風速 17m/s
TAF ZPPP 170709Z 1712/1812 23007MPS 9999 BKN026 TX20/1808Z TN07/1723Z
BECMG 1803/1804 23012G17MPS